createdAt,value
2023-02-07T00:00:20.000Z,1027.76
2023-02-07T00:01:20.042Z,1027.74
2023-02-07T00:02:20.024Z,1027.74
2023-02-07T00:03:20.014Z,1027.74
2023-02-07T00:04:19.953Z,1027.76
2023-02-07T00:05:19.938Z,1027.79
2023-02-07T00:06:19.934Z,1027.81
2023-02-07T00:07:19.931Z,1027.82
2023-02-07T00:08:19.923Z,1027.80
2023-02-07T00:09:19.898Z,1027.79
2023-02-07T00:10:19.883Z,1027.80
2023-02-07T00:11:19.863Z,1027.83
2023-02-07T00:12:19.869Z,1027.85
2023-02-07T00:13:20.049Z,1027.85
2023-02-07T00:14:19.843Z,1027.83
2023-02-07T00:15:19.874Z,1027.82
2023-02-07T00:16:19.931Z,1027.81
2023-02-07T00:17:19.967Z,1027.81
2023-02-07T00:18:19.810Z,1027.80
2023-02-07T00:19:19.779Z,1027.81
2023-02-07T00:20:19.782Z,1027.82
2023-02-07T00:21:19.822Z,1027.82
2023-02-07T00:22:19.815Z,1027.81
2023-02-07T00:23:19.748Z,1027.81
2023-02-07T00:24:19.732Z,1027.84
2023-02-07T00:25:19.719Z,1027.86
2023-02-07T00:26:19.866Z,1027.88
2023-02-07T00:27:19.715Z,1027.88
2023-02-07T00:28:28.407Z,1027.85
2023-02-07T00:29:19.680Z,1027.81
2023-02-07T00:30:19.727Z,1027.75
2023-02-07T00:31:19.856Z,1027.71
2023-02-07T00:32:19.658Z,1027.68
2023-02-07T00:33:19.665Z,1027.68
2023-02-07T00:34:19.655Z,1027.69
2023-02-07T00:35:19.640Z,1027.70
2023-02-07T00:36:19.640Z,1027.72
2023-02-07T00:37:19.619Z,1027.69
2023-02-07T00:38:19.595Z,1027.63
2023-02-07T00:39:19.594Z,1027.60
2023-02-07T00:40:19.595Z,1027.58
2023-02-07T00:41:19.617Z,1027.55
2023-02-07T00:42:19.557Z,1027.54
2023-02-07T00:43:29.396Z,1027.51
2023-02-07T00:44:19.531Z,1027.52
2023-02-07T00:45:19.543Z,1027.55
2023-02-07T00:46:19.586Z,1027.57
2023-02-07T00:47:19.456Z,1027.56
2023-02-07T00:48:19.521Z,1027.52
2023-02-07T00:49:19.498Z,1027.48
2023-02-07T00:50:19.471Z,1027.45
2023-02-07T00:51:19.954Z,1027.43
2023-02-07T00:52:19.454Z,1027.45
2023-02-07T00:53:19.453Z,1027.51
2023-02-07T00:54:19.430Z,1027.57
2023-02-07T00:55:19.428Z,1027.60
2023-02-07T00:56:19.446Z,1027.63
2023-02-07T00:57:19.409Z,1027.60
2023-02-07T00:58:19.391Z,1027.56
2023-02-07T00:59:19.419Z,1027.54
2023-02-07T01:00:19.402Z,1027.50
2023-02-07T01:01:20.310Z,1027.49
2023-02-07T01:02:19.353Z,1027.52
2023-02-07T01:03:19.367Z,1027.57
2023-02-07T01:04:19.447Z,1027.63
2023-02-07T01:05:19.336Z,1027.69
2023-02-07T01:06:19.362Z,1027.71
2023-02-07T01:07:19.325Z,1027.71
2023-02-07T01:08:19.305Z,1027.69
2023-02-07T01:09:19.325Z,1027.66
2023-02-07T01:10:19.264Z,1027.66
2023-02-07T01:11:19.288Z,1027.66
2023-02-07T01:12:19.258Z,1027.69
2023-02-07T01:13:19.254Z,1027.70
2023-02-07T01:14:19.259Z,1027.67
2023-02-07T01:15:19.229Z,1027.65
2023-02-07T01:16:19.222Z,1027.64
2023-02-07T01:17:19.220Z,1027.63
2023-02-07T01:18:19.192Z,1027.63
2023-02-07T01:19:19.191Z,1027.63
2023-02-07T01:20:19.207Z,1027.67
2023-02-07T01:21:19.190Z,1027.71
2023-02-07T01:22:19.183Z,1027.71
2023-02-07T01:23:19.150Z,1027.71
2023-02-07T01:24:19.132Z,1027.70
2023-02-07T01:25:19.140Z,1027.67
2023-02-07T01:26:19.100Z,1027.66
2023-02-07T01:27:19.116Z,1027.66
2023-02-07T01:28:19.171Z,1027.67
2023-02-07T01:29:19.090Z,1027.70
2023-02-07T01:30:19.070Z,1027.73
2023-02-07T01:31:19.231Z,1027.78
2023-02-07T01:32:19.058Z,1027.81
2023-02-07T01:33:19.096Z,1027.81
2023-02-07T01:34:19.041Z,1027.81
2023-02-07T01:35:19.064Z,1027.77
2023-02-07T01:36:19.036Z,1027.73
2023-02-07T01:37:19.035Z,1027.72
2023-02-07T01:38:18.996Z,1027.74
2023-02-07T01:39:18.985Z,1027.74
2023-02-07T01:40:18.969Z,1027.73
2023-02-07T01:41:25.550Z,1027.71
2023-02-07T01:42:18.941Z,1027.69
2023-02-07T01:43:18.968Z,1027.71
2023-02-07T01:44:18.935Z,1027.72
2023-02-07T01:45:18.958Z,1027.71
2023-02-07T01:46:18.972Z,1027.70
2023-02-07T01:47:18.909Z,1027.70
2023-02-07T01:48:18.904Z,1027.71
2023-02-07T01:49:18.896Z,1027.70
2023-02-07T01:50:18.873Z,1027.67
2023-02-07T01:51:18.895Z,1027.65
2023-02-07T01:52:18.854Z,1027.65
2023-02-07T01:53:18.839Z,1027.66
2023-02-07T01:54:18.842Z,1027.67
2023-02-07T01:55:18.811Z,1027.69
2023-02-07T01:56:30.744Z,1027.69
2023-02-07T01:57:18.807Z,1027.69
2023-02-07T01:58:18.814Z,1027.65
2023-02-07T01:59:18.801Z,1027.62
2023-02-07T02:00:18.795Z,1027.61
2023-02-07T02:01:18.768Z,1027.62
2023-02-07T02:02:18.803Z,1027.64
2023-02-07T02:03:18.743Z,1027.65
2023-02-07T02:04:18.728Z,1027.64
2023-02-07T02:05:18.737Z,1027.64
2023-02-07T02:06:18.718Z,1027.64
2023-02-07T02:07:18.703Z,1027.63
2023-02-07T02:08:18.671Z,1027.65
2023-02-07T02:09:18.670Z,1027.64
2023-02-07T02:10:18.678Z,1027.61
2023-02-07T02:11:18.686Z,1027.60
2023-02-07T02:12:18.636Z,1027.60
2023-02-07T02:13:18.639Z,1027.62
2023-02-07T02:14:18.628Z,1027.66
2023-02-07T02:15:18.633Z,1027.65
2023-02-07T02:16:18.690Z,1027.63
2023-02-07T02:17:18.612Z,1027.60
2023-02-07T02:18:18.581Z,1027.56
2023-02-07T02:19:18.577Z,1027.53
2023-02-07T02:20:18.588Z,1027.51
2023-02-07T02:21:18.572Z,1027.50
2023-02-07T02:22:18.563Z,1027.51
2023-02-07T02:23:18.570Z,1027.53
2023-02-07T02:24:18.542Z,1027.54
2023-02-07T02:25:18.517Z,1027.55
2023-02-07T02:26:18.522Z,1027.53
2023-02-07T02:27:18.502Z,1027.51
2023-02-07T02:28:18.533Z,1027.49
2023-02-07T02:29:18.479Z,1027.48
2023-02-07T02:30:18.586Z,1027.46
2023-02-07T02:31:18.476Z,1027.42
2023-02-07T02:32:18.448Z,1027.42
2023-02-07T02:33:18.433Z,1027.44
2023-02-07T02:34:18.428Z,1027.45
2023-02-07T02:35:18.420Z,1027.45
2023-02-07T02:36:18.412Z,1027.43
2023-02-07T02:37:18.401Z,1027.41
2023-02-07T02:38:18.396Z,1027.38
2023-02-07T02:39:18.373Z,1027.35
2023-02-07T02:40:18.355Z,1027.32
2023-02-07T02:41:18.361Z,1027.33
2023-02-07T02:42:18.376Z,1027.35
2023-02-07T02:43:18.358Z,1027.35
2023-02-07T02:44:18.316Z,1027.34
2023-02-07T02:45:18.315Z,1027.33
2023-02-07T02:46:18.324Z,1027.33
2023-02-07T02:47:18.296Z,1027.31
2023-02-07T02:48:18.294Z,1027.31
2023-02-07T02:49:18.290Z,1027.32
2023-02-07T02:50:18.257Z,1027.32
2023-02-07T02:51:18.256Z,1027.34
2023-02-07T02:52:18.235Z,1027.36
2023-02-07T02:53:18.276Z,1027.39
2023-02-07T02:54:24.793Z,1027.40
2023-02-07T02:55:18.231Z,1027.37
2023-02-07T02:56:18.280Z,1027.34
2023-02-07T02:57:18.212Z,1027.34
2023-02-07T02:58:20.150Z,1027.34
2023-02-07T02:59:18.185Z,1027.33
2023-02-07T03:00:18.187Z,1027.33
2023-02-07T03:01:18.253Z,1027.34
2023-02-07T03:02:18.160Z,1027.35
2023-02-07T03:03:18.147Z,1027.35
2023-02-07T03:04:18.145Z,1027.33
2023-02-07T03:05:18.170Z,1027.32
2023-02-07T03:06:18.106Z,1027.30
2023-02-07T03:07:18.104Z,1027.27
2023-02-07T03:08:18.080Z,1027.27
2023-02-07T03:09:18.091Z,1027.29
2023-02-07T03:10:18.125Z,1027.30
2023-02-07T03:11:18.075Z,1027.30
2023-02-07T03:12:18.041Z,1027.32
2023-02-07T03:13:18.061Z,1027.35
2023-02-07T03:14:18.021Z,1027.36
2023-02-07T03:15:18.032Z,1027.37
2023-02-07T03:16:18.072Z,1027.37
2023-02-07T03:17:18.009Z,1027.36
2023-02-07T03:18:17.983Z,1027.35
2023-02-07T03:19:17.990Z,1027.34
2023-02-07T03:20:17.951Z,1027.34
2023-02-07T03:21:17.965Z,1027.35
2023-02-07T03:22:17.938Z,1027.35
2023-02-07T03:23:17.925Z,1027.33
2023-02-07T03:24:17.949Z,1027.33
2023-02-07T03:25:17.930Z,1027.33
2023-02-07T03:26:17.895Z,1027.34
2023-02-07T03:27:17.888Z,1027.36
2023-02-07T03:28:17.924Z,1027.38
2023-02-07T03:29:17.879Z,1027.37
2023-02-07T03:30:17.898Z,1027.36
2023-02-07T03:31:17.872Z,1027.36
2023-02-07T03:32:17.851Z,1027.36
2023-02-07T03:33:17.841Z,1027.35
2023-02-07T03:34:17.832Z,1027.35
2023-02-07T03:35:17.882Z,1027.36
2023-02-07T03:36:17.807Z,1027.37
2023-02-07T03:37:17.817Z,1027.35
2023-02-07T03:38:17.788Z,1027.32
2023-02-07T03:39:17.767Z,1027.29
2023-02-07T03:40:17.763Z,1027.28
2023-02-07T03:41:17.796Z,1027.28
2023-02-07T03:42:17.738Z,1027.29
2023-02-07T03:43:17.725Z,1027.29
2023-02-07T03:44:17.723Z,1027.30
2023-02-07T03:45:17.705Z,1027.30
2023-02-07T03:46:17.730Z,1027.30
2023-02-07T03:47:17.693Z,1027.29
2023-02-07T03:48:17.686Z,1027.29
2023-02-07T03:49:17.683Z,1027.31
2023-02-07T03:50:17.642Z,1027.32
2023-02-07T03:51:17.689Z,1027.31
2023-02-07T03:52:17.645Z,1027.31
2023-02-07T03:53:17.637Z,1027.34
2023-02-07T03:54:17.631Z,1027.36
2023-02-07T03:55:17.605Z,1027.35
2023-02-07T03:56:17.580Z,1027.33
2023-02-07T03:57:17.609Z,1027.33
2023-02-07T03:58:17.572Z,1027.35
2023-02-07T03:59:17.565Z,1027.38
2023-02-07T04:00:17.555Z,1027.38
2023-02-07T04:01:17.580Z,1027.37
2023-02-07T04:02:17.577Z,1027.36
2023-02-07T04:03:17.548Z,1027.35
2023-02-07T04:04:17.507Z,1027.33
2023-02-07T04:05:17.500Z,1027.30
2023-02-07T04:06:17.479Z,1027.29
2023-02-07T04:07:17.480Z,1027.31
2023-02-07T04:08:26.014Z,1027.33
2023-02-07T04:09:17.465Z,1027.32
2023-02-07T04:10:17.459Z,1027.33
2023-02-07T04:11:17.438Z,1027.37
2023-02-07T04:12:17.449Z,1027.41
2023-02-07T04:13:17.426Z,1027.40
2023-02-07T04:14:17.519Z,1027.38
2023-02-07T04:15:18.379Z,1027.38
2023-02-07T04:16:17.403Z,1027.37
2023-02-07T04:17:17.511Z,1027.35
2023-02-07T04:18:17.390Z,1027.35
2023-02-07T04:19:24.327Z,1027.36
2023-02-07T04:20:17.337Z,1027.36
2023-02-07T04:21:17.359Z,1027.38
2023-02-07T04:22:17.320Z,1027.39
2023-02-07T04:23:17.328Z,1027.39
2023-02-07T04:24:17.297Z,1027.38
2023-02-07T04:25:17.316Z,1027.37
2023-02-07T04:26:17.271Z,1027.37
2023-02-07T04:27:17.276Z,1027.35
2023-02-07T04:28:17.311Z,1027.35
2023-02-07T04:29:17.258Z,1027.36
2023-02-07T04:30:17.231Z,1027.38
2023-02-07T04:31:17.279Z,1027.38
2023-02-07T04:32:17.234Z,1027.36
2023-02-07T04:33:17.221Z,1027.35
2023-02-07T04:34:17.220Z,1027.36
2023-02-07T04:35:17.200Z,1027.39
2023-02-07T04:36:17.174Z,1027.40
2023-02-07T04:37:17.173Z,1027.40
2023-02-07T04:38:17.194Z,1027.40
2023-02-07T04:39:17.151Z,1027.39
2023-02-07T04:40:17.159Z,1027.38
2023-02-07T04:41:17.136Z,1027.36
2023-02-07T04:42:17.153Z,1027.37
2023-02-07T04:43:17.102Z,1027.39
2023-02-07T04:44:17.123Z,1027.41
2023-02-07T04:45:17.070Z,1027.41
2023-02-07T04:46:17.091Z,1027.41
2023-02-07T04:47:17.064Z,1027.39
2023-02-07T04:48:17.075Z,1027.39
2023-02-07T04:49:17.061Z,1027.38
2023-02-07T04:50:17.042Z,1027.37
2023-02-07T04:51:17.038Z,1027.36
2023-02-07T04:52:17.010Z,1027.35
2023-02-07T04:53:17.033Z,1027.35
2023-02-07T04:54:16.989Z,1027.37
2023-02-07T04:55:16.986Z,1027.37
2023-02-07T04:56:17.013Z,1027.37
2023-02-07T04:57:16.960Z,1027.35
2023-02-07T04:58:16.946Z,1027.34
2023-02-07T04:59:16.937Z,1027.34
2023-02-07T05:00:16.948Z,1027.33
2023-02-07T05:01:16.963Z,1027.32
2023-02-07T05:02:16.950Z,1027.31
2023-02-07T05:03:16.913Z,1027.33
2023-02-07T05:04:16.956Z,1027.34
2023-02-07T05:05:16.880Z,1027.36
2023-02-07T05:06:16.852Z,1027.39
2023-02-07T05:07:16.856Z,1027.41
2023-02-07T05:08:16.858Z,1027.43
2023-02-07T05:09:16.834Z,1027.45
2023-02-07T05:10:16.825Z,1027.44
2023-02-07T05:11:16.827Z,1027.42
2023-02-07T05:12:16.827Z,1027.39
2023-02-07T05:13:16.794Z,1027.38
2023-02-07T05:14:16.776Z,1027.38
2023-02-07T05:15:16.788Z,1027.38
2023-02-07T05:16:16.849Z,1027.39
2023-02-07T05:17:16.771Z,1027.39
2023-02-07T05:18:16.765Z,1027.39
2023-02-07T05:19:16.717Z,1027.41
2023-02-07T05:20:16.728Z,1027.44
2023-02-07T05:21:16.710Z,1027.46
2023-02-07T05:22:16.702Z,1027.48
2023-02-07T05:23:16.687Z,1027.49
2023-02-07T05:24:16.709Z,1027.49
2023-02-07T05:25:16.677Z,1027.48
2023-02-07T05:26:16.684Z,1027.49
2023-02-07T05:27:16.653Z,1027.50
2023-02-07T05:28:16.815Z,1027.51
2023-02-07T05:29:16.637Z,1027.52
2023-02-07T05:30:16.643Z,1027.52
2023-02-07T05:31:16.710Z,1027.51
2023-02-07T05:32:16.598Z,1027.50
2023-02-07T05:33:16.595Z,1027.48
2023-02-07T05:34:16.591Z,1027.48
2023-02-07T05:35:16.575Z,1027.51
2023-02-07T05:36:16.573Z,1027.55
2023-02-07T05:37:16.532Z,1027.58
2023-02-07T05:38:16.532Z,1027.60
2023-02-07T05:39:16.511Z,1027.59
2023-02-07T05:40:16.525Z,1027.58
2023-02-07T05:41:16.449Z,1027.58
2023-02-07T05:42:16.490Z,1027.58
2023-02-07T05:43:16.496Z,1027.58
2023-02-07T05:44:16.499Z,1027.56
2023-02-07T05:45:16.440Z,1027.54
2023-02-07T05:46:16.517Z,1027.52
2023-02-07T05:47:17.552Z,1027.51
2023-02-07T05:48:16.432Z,1027.52
2023-02-07T05:49:16.410Z,1027.52
2023-02-07T05:50:16.427Z,1027.53
2023-02-07T05:51:16.532Z,1027.52
2023-02-07T05:52:16.395Z,1027.52
2023-02-07T05:53:16.378Z,1027.52
2023-02-07T05:54:16.366Z,1027.53
2023-02-07T05:55:16.359Z,1027.55
2023-02-07T05:56:16.368Z,1027.56
2023-02-07T05:57:16.330Z,1027.58
2023-02-07T05:58:16.315Z,1027.62
2023-02-07T05:59:16.327Z,1027.65
2023-02-07T06:00:16.311Z,1027.68
2023-02-07T06:01:16.288Z,1027.69
2023-02-07T06:02:16.368Z,1027.69
2023-02-07T06:03:16.312Z,1027.68
2023-02-07T06:04:16.261Z,1027.66
2023-02-07T06:05:16.264Z,1027.64
2023-02-07T06:06:16.264Z,1027.62
2023-02-07T06:07:16.233Z,1027.61
2023-02-07T06:08:16.237Z,1027.60
2023-02-07T06:09:16.255Z,1027.60
2023-02-07T06:10:16.216Z,1027.59
2023-02-07T06:11:16.191Z,1027.59
2023-02-07T06:12:16.183Z,1027.59
2023-02-07T06:13:16.375Z,1027.61
2023-02-07T06:14:16.148Z,1027.64
2023-02-07T06:15:16.145Z,1027.67
2023-02-07T06:16:16.211Z,1027.70
2023-02-07T06:17:16.123Z,1027.70
2023-02-07T06:18:16.110Z,1027.70
2023-02-07T06:19:16.116Z,1027.70
2023-02-07T06:20:16.108Z,1027.69
2023-02-07T06:21:16.086Z,1027.69
2023-02-07T06:22:16.092Z,1027.69
2023-02-07T06:23:16.050Z,1027.69
2023-02-07T06:24:16.054Z,1027.69
2023-02-07T06:25:16.041Z,1027.69
2023-02-07T06:26:16.031Z,1027.68
2023-02-07T06:27:15.966Z,1027.66
2023-02-07T06:28:16.060Z,1027.64
2023-02-07T06:29:15.996Z,1027.63
2023-02-07T06:30:15.934Z,1027.66
2023-02-07T06:31:16.030Z,1027.68
2023-02-07T06:32:15.918Z,1027.71
2023-02-07T06:33:15.911Z,1027.72
2023-02-07T06:34:15.904Z,1027.74
2023-02-07T06:35:15.920Z,1027.75
2023-02-07T06:36:15.937Z,1027.79
2023-02-07T06:37:15.890Z,1027.81
2023-02-07T06:38:15.877Z,1027.83
2023-02-07T06:39:15.856Z,1027.83
2023-02-07T06:40:15.868Z,1027.84
2023-02-07T06:41:15.829Z,1027.86
2023-02-07T06:42:15.822Z,1027.87
2023-02-07T06:43:15.816Z,1027.90
2023-02-07T06:44:15.815Z,1027.91
2023-02-07T06:45:15.794Z,1027.92
2023-02-07T06:46:15.820Z,1027.92
2023-02-07T06:47:15.799Z,1027.92
2023-02-07T06:48:15.765Z,1027.92
2023-02-07T06:49:15.759Z,1027.92
2023-02-07T06:50:15.739Z,1027.92
2023-02-07T06:51:15.739Z,1027.91
2023-02-07T06:52:15.721Z,1027.92
2023-02-07T06:53:15.694Z,1027.92
2023-02-07T06:54:15.697Z,1027.90
2023-02-07T06:55:15.674Z,1027.88
2023-02-07T06:56:17.760Z,1027.86
2023-02-07T06:57:15.698Z,1027.84
2023-02-07T06:58:15.658Z,1027.84
2023-02-07T06:59:15.635Z,1027.84
2023-02-07T07:00:15.643Z,1027.85
2023-02-07T07:01:15.618Z,1027.86
2023-02-07T07:02:15.615Z,1027.87
2023-02-07T07:03:15.610Z,1027.88
2023-02-07T07:04:15.611Z,1027.90
2023-02-07T07:05:16.542Z,1027.92
2023-02-07T07:06:15.570Z,1027.93
2023-02-07T07:07:15.560Z,1027.93
2023-02-07T07:08:15.554Z,1027.93
2023-02-07T07:09:15.542Z,1027.95
2023-02-07T07:10:15.595Z,1027.95
2023-02-07T07:11:15.531Z,1027.94
2023-02-07T07:12:15.517Z,1027.93
2023-02-07T07:13:15.503Z,1027.93
2023-02-07T07:14:15.503Z,1027.94
2023-02-07T07:15:15.486Z,1027.94
2023-02-07T07:16:15.485Z,1027.92
2023-02-07T07:17:15.459Z,1027.90
2023-02-07T07:18:15.455Z,1027.88
2023-02-07T07:19:15.482Z,1027.88
2023-02-07T07:20:15.443Z,1027.90
2023-02-07T07:21:15.423Z,1027.93
2023-02-07T07:22:15.440Z,1027.95
2023-02-07T07:23:15.417Z,1027.95
2023-02-07T07:24:15.404Z,1027.94
2023-02-07T07:25:15.375Z,1027.92
2023-02-07T07:26:15.378Z,1027.92
2023-02-07T07:27:15.370Z,1027.93
2023-02-07T07:28:15.383Z,1027.93
2023-02-07T07:29:15.347Z,1027.93
2023-02-07T07:30:15.335Z,1027.93
2023-02-07T07:31:15.426Z,1027.92
2023-02-07T07:32:25.177Z,1027.92
2023-02-07T07:33:15.304Z,1027.92
2023-02-07T07:34:15.317Z,1027.90
2023-02-07T07:35:15.280Z,1027.90
2023-02-07T07:36:15.277Z,1027.90
2023-02-07T07:37:15.287Z,1027.90
2023-02-07T07:38:15.260Z,1027.90
2023-02-07T07:39:15.249Z,1027.91
2023-02-07T07:40:15.233Z,1027.90
2023-02-07T07:41:15.213Z,1027.89
2023-02-07T07:42:15.226Z,1027.86
2023-02-07T07:43:15.193Z,1027.84
2023-02-07T07:44:15.197Z,1027.83
2023-02-07T07:45:15.185Z,1027.85
2023-02-07T07:46:15.188Z,1027.87
2023-02-07T07:47:15.173Z,1027.90
2023-02-07T07:48:15.151Z,1027.93
2023-02-07T07:49:15.132Z,1027.96
2023-02-07T07:50:15.138Z,1027.99
2023-02-07T07:51:15.109Z,1028.01
2023-02-07T07:52:15.120Z,1028.04
2023-02-07T07:53:15.113Z,1028.08
2023-02-07T07:54:15.094Z,1028.12
2023-02-07T07:55:15.077Z,1028.16
2023-02-07T07:56:15.073Z,1028.19
2023-02-07T07:57:15.054Z,1028.22
2023-02-07T07:58:15.057Z,1028.24
2023-02-07T07:59:23.675Z,1028.25
2023-02-07T08:00:15.037Z,1028.26
2023-02-07T08:01:15.144Z,1028.27
2023-02-07T08:02:15.015Z,1028.29
2023-02-07T08:03:14.987Z,1028.30
2023-02-07T08:04:15.001Z,1028.30
2023-02-07T08:05:14.992Z,1028.30
2023-02-07T08:06:14.971Z,1028.29
2023-02-07T08:07:14.956Z,1028.29
2023-02-07T08:08:14.963Z,1028.30
2023-02-07T08:09:14.962Z,1028.29
2023-02-07T08:10:14.932Z,1028.31
2023-02-07T08:11:14.918Z,1028.31
2023-02-07T08:12:14.913Z,1028.31
2023-02-07T08:13:14.897Z,1028.29
2023-02-07T08:14:14.894Z,1028.29
2023-02-07T08:15:14.875Z,1028.28
2023-02-07T08:16:14.920Z,1028.27
2023-02-07T08:17:14.865Z,1028.26
2023-02-07T08:18:14.847Z,1028.24
2023-02-07T08:19:14.838Z,1028.25
2023-02-07T08:20:14.839Z,1028.24
2023-02-07T08:21:14.825Z,1028.25
2023-02-07T08:22:14.820Z,1028.25
2023-02-07T08:23:14.801Z,1028.27
2023-02-07T08:24:14.788Z,1028.29
2023-02-07T08:25:14.771Z,1028.30
2023-02-07T08:26:14.769Z,1028.32
2023-02-07T08:27:14.760Z,1028.32
2023-02-07T08:28:14.788Z,1028.32
2023-02-07T08:29:14.729Z,1028.31
2023-02-07T08:30:14.720Z,1028.31
2023-02-07T08:31:14.797Z,1028.31
2023-02-07T08:32:14.701Z,1028.31
2023-02-07T08:33:14.676Z,1028.33
2023-02-07T08:34:14.686Z,1028.34
2023-02-07T08:35:14.664Z,1028.33
2023-02-07T08:36:14.668Z,1028.33
2023-02-07T08:37:14.658Z,1028.33
2023-02-07T08:38:14.632Z,1028.32
2023-02-07T08:39:14.622Z,1028.30
2023-02-07T08:40:14.622Z,1028.28
2023-02-07T08:41:14.605Z,1028.26
2023-02-07T08:42:14.615Z,1028.25
2023-02-07T08:43:14.588Z,1028.23
2023-02-07T08:44:14.591Z,1028.23
2023-02-07T08:45:14.574Z,1028.24
2023-02-07T08:46:14.714Z,1028.26
2023-02-07T08:47:14.535Z,1028.29
2023-02-07T08:48:14.552Z,1028.30
2023-02-07T08:49:14.526Z,1028.31
2023-02-07T08:50:14.513Z,1028.33
2023-02-07T08:51:14.492Z,1028.34
2023-02-07T08:52:14.496Z,1028.35
2023-02-07T08:53:14.489Z,1028.36
2023-02-07T08:54:14.474Z,1028.36
2023-02-07T08:55:14.462Z,1028.36
2023-02-07T08:56:14.456Z,1028.36
2023-02-07T08:57:14.444Z,1028.36
2023-02-07T08:58:14.439Z,1028.36
2023-02-07T08:59:14.425Z,1028.35
2023-02-07T09:00:14.401Z,1028.34
2023-02-07T09:01:14.508Z,1028.33
2023-02-07T09:02:14.412Z,1028.33
2023-02-07T09:03:14.613Z,1028.33
2023-02-07T09:04:14.372Z,1028.34
2023-02-07T09:05:14.370Z,1028.35
2023-02-07T09:06:14.349Z,1028.35
2023-02-07T09:07:14.372Z,1028.33
2023-02-07T09:08:14.323Z,1028.31
2023-02-07T09:09:14.350Z,1028.30
2023-02-07T09:10:14.307Z,1028.30
2023-02-07T09:11:14.391Z,1028.29
2023-02-07T09:12:14.286Z,1028.28
2023-02-07T09:13:14.273Z,1028.28
2023-02-07T09:14:14.263Z,1028.26
2023-02-07T09:15:14.291Z,1028.24
2023-02-07T09:16:14.284Z,1028.21
2023-02-07T09:17:14.234Z,1028.20
2023-02-07T09:18:14.244Z,1028.18
2023-02-07T09:19:14.218Z,1028.17
2023-02-07T09:20:14.212Z,1028.16
2023-02-07T09:21:14.209Z,1028.17
2023-02-07T09:22:14.182Z,1028.17
2023-02-07T09:23:14.194Z,1028.17
2023-02-07T09:24:14.177Z,1028.15
2023-02-07T09:25:14.152Z,1028.14
2023-02-07T09:26:14.170Z,1028.13
2023-02-07T09:27:14.136Z,1028.13
2023-02-07T09:28:14.144Z,1028.15
2023-02-07T09:29:14.191Z,1028.17
2023-02-07T09:30:14.123Z,1028.18
2023-02-07T09:31:14.172Z,1028.19
2023-02-07T09:32:14.077Z,1028.18
2023-02-07T09:33:14.079Z,1028.17
2023-02-07T09:34:14.071Z,1028.18
2023-02-07T09:35:14.081Z,1028.18
2023-02-07T09:36:14.054Z,1028.19
2023-02-07T09:37:14.040Z,1028.19
2023-02-07T09:38:14.019Z,1028.19
2023-02-07T09:39:14.032Z,1028.19
2023-02-07T09:40:14.012Z,1028.18
2023-02-07T09:41:13.994Z,1028.18
2023-02-07T09:42:13.992Z,1028.18
2023-02-07T09:43:14.293Z,1028.20
2023-02-07T09:44:14.208Z,1028.22
2023-02-07T09:45:14.201Z,1028.24
2023-02-07T09:46:14.074Z,1028.25
2023-02-07T09:47:13.952Z,1028.25
2023-02-07T09:48:13.927Z,1028.24
2023-02-07T09:49:13.951Z,1028.23
2023-02-07T09:50:13.932Z,1028.21
2023-02-07T09:51:13.904Z,1028.20
2023-02-07T09:52:13.877Z,1028.18
2023-02-07T09:53:15.656Z,1028.15
2023-02-07T09:54:13.863Z,1028.13
2023-02-07T09:55:13.883Z,1028.11
2023-02-07T09:56:13.836Z,1028.11
2023-02-07T09:57:13.836Z,1028.11
2023-02-07T09:58:13.847Z,1028.13
2023-02-07T09:59:14.014Z,1028.12
2023-02-07T10:00:13.820Z,1028.10
2023-02-07T10:01:13.838Z,1028.08
2023-02-07T10:02:13.819Z,1028.08
2023-02-07T10:03:13.786Z,1028.08
2023-02-07T10:04:13.770Z,1028.08
2023-02-07T10:05:13.770Z,1028.08
2023-02-07T10:06:18.797Z,1028.06
2023-02-07T10:07:13.751Z,1028.06
2023-02-07T10:08:13.715Z,1028.08
2023-02-07T10:09:13.704Z,1028.09
2023-02-07T10:10:13.728Z,1028.12
2023-02-07T10:11:13.688Z,1028.12
2023-02-07T10:12:13.672Z,1028.13
2023-02-07T10:13:13.682Z,1028.13
2023-02-07T10:14:13.648Z,1028.11
2023-02-07T10:15:13.675Z,1028.11
2023-02-07T10:16:13.650Z,1028.11
2023-02-07T10:17:22.229Z,1028.10
2023-02-07T10:18:13.665Z,1028.09
2023-02-07T10:19:13.614Z,1028.10
2023-02-07T10:20:13.646Z,1028.11
2023-02-07T10:21:13.609Z,1028.13
2023-02-07T10:22:13.591Z,1028.16
2023-02-07T10:23:13.584Z,1028.17
2023-02-07T10:24:13.576Z,1028.19
2023-02-07T10:25:13.559Z,1028.17
2023-02-07T10:26:13.561Z,1028.16
2023-02-07T10:27:13.563Z,1028.17
2023-02-07T10:28:13.642Z,1028.16
2023-02-07T10:29:13.519Z,1028.17
2023-02-07T10:30:13.497Z,1028.19
2023-02-07T10:31:13.644Z,1028.20
2023-02-07T10:32:13.470Z,1028.22
2023-02-07T10:33:13.496Z,1028.23
2023-02-07T10:34:13.453Z,1028.24
2023-02-07T10:35:13.464Z,1028.24
2023-02-07T10:36:13.437Z,1028.22
2023-02-07T10:37:13.423Z,1028.22
2023-02-07T10:38:13.404Z,1028.21
2023-02-07T10:39:13.427Z,1028.20
2023-02-07T10:40:13.377Z,1028.20
2023-02-07T10:41:13.422Z,1028.19
2023-02-07T10:42:13.404Z,1028.18
2023-02-07T10:43:13.358Z,1028.16
2023-02-07T10:44:13.379Z,1028.15
2023-02-07T10:45:13.356Z,1028.14
2023-02-07T10:46:13.396Z,1028.14
2023-02-07T10:47:13.337Z,1028.15
2023-02-07T10:48:13.296Z,1028.16
2023-02-07T10:49:13.307Z,1028.20
2023-02-07T10:50:16.102Z,1028.21
2023-02-07T10:51:13.306Z,1028.22
2023-02-07T10:52:13.269Z,1028.22
2023-02-07T10:53:13.256Z,1028.21
2023-02-07T10:54:13.239Z,1028.23
2023-02-07T10:55:13.254Z,1028.22
2023-02-07T10:56:13.240Z,1028.23
2023-02-07T10:57:13.215Z,1028.25
2023-02-07T10:58:22.516Z,1028.26
2023-02-07T10:59:13.212Z,1028.27
2023-02-07T11:00:13.217Z,1028.27
2023-02-07T11:01:13.207Z,1028.26
2023-02-07T11:02:13.212Z,1028.23
2023-02-07T11:03:13.156Z,1028.22
2023-02-07T11:04:13.137Z,1028.22
2023-02-07T11:05:13.145Z,1028.23
2023-02-07T11:06:13.160Z,1028.26
2023-02-07T11:07:13.159Z,1028.26
2023-02-07T11:08:13.093Z,1028.25
2023-02-07T11:09:13.094Z,1028.23
2023-02-07T11:10:13.082Z,1028.19
2023-02-07T11:11:13.081Z,1028.16
2023-02-07T11:12:13.075Z,1028.13
2023-02-07T11:13:13.056Z,1028.14
2023-02-07T11:14:13.075Z,1028.12
2023-02-07T11:15:13.036Z,1028.11
2023-02-07T11:16:13.055Z,1028.09
2023-02-07T11:17:13.021Z,1028.09
2023-02-07T11:18:13.000Z,1028.12
2023-02-07T11:19:12.995Z,1028.15
2023-02-07T11:20:12.992Z,1028.15
2023-02-07T11:21:12.976Z,1028.15
2023-02-07T11:22:12.947Z,1028.14
2023-02-07T11:23:12.965Z,1028.11
2023-02-07T11:24:12.939Z,1028.10
2023-02-07T11:25:12.961Z,1028.08
2023-02-07T11:26:12.945Z,1028.07
2023-02-07T11:27:12.912Z,1028.06
2023-02-07T11:28:12.966Z,1028.06
2023-02-07T11:29:12.905Z,1028.04
2023-02-07T11:30:12.875Z,1028.03
2023-02-07T11:31:13.055Z,1028.02
2023-02-07T11:32:12.848Z,1028.01
2023-02-07T11:33:12.841Z,1028.02
2023-02-07T11:34:12.862Z,1028.02
2023-02-07T11:35:12.849Z,1028.02
2023-02-07T11:36:12.833Z,1028.03
2023-02-07T11:37:12.806Z,1028.03
2023-02-07T11:38:12.796Z,1028.02
2023-02-07T11:39:12.792Z,1028.01
2023-02-07T11:40:12.790Z,1027.98
2023-02-07T11:41:12.763Z,1027.97
2023-02-07T11:42:12.757Z,1027.98
2023-02-07T11:43:12.749Z,1027.97
2023-02-07T11:44:12.724Z,1027.96
2023-02-07T11:45:12.726Z,1027.94
2023-02-07T11:46:12.841Z,1027.91
2023-02-07T11:47:12.703Z,1027.89
2023-02-07T11:48:12.686Z,1027.87
2023-02-07T11:49:12.682Z,1027.86
2023-02-07T11:50:12.672Z,1027.83
2023-02-07T11:51:12.664Z,1027.82
2023-02-07T11:52:12.670Z,1027.80
2023-02-07T11:53:12.662Z,1027.80
2023-02-07T11:54:12.634Z,1027.81
2023-02-07T11:55:12.626Z,1027.82
2023-02-07T11:56:12.636Z,1027.84
2023-02-07T11:57:12.613Z,1027.85
2023-02-07T11:58:12.606Z,1027.85
2023-02-07T11:59:12.637Z,1027.85
2023-02-07T12:00:12.567Z,1027.85
2023-02-07T12:01:12.560Z,1027.84
2023-02-07T12:02:12.568Z,1027.83
2023-02-07T12:03:12.550Z,1027.83
2023-02-07T12:04:12.541Z,1027.81
2023-02-07T12:05:12.603Z,1027.80